createdAt,value
2018-05-14T00:02:15.316Z,95.40
2018-05-14T00:04:42.499Z,96.00
2018-05-14T00:07:08.857Z,96.00
2018-05-14T00:09:35.888Z,96.10
2018-05-14T00:12:02.222Z,96.00
2018-05-14T00:14:28.617Z,96.50
2018-05-14T00:16:55.741Z,96.80
2018-05-14T00:19:22.804Z,96.90
2018-05-14T00:21:49.319Z,96.70
2018-05-14T00:24:15.643Z,97.10
2018-05-14T00:26:42.043Z,97.50
2018-05-14T00:29:08.345Z,96.70
2018-05-14T00:31:34.660Z,96.20
2018-05-14T00:34:01.723Z,96.60
2018-05-14T00:36:28.034Z,96.70
2018-05-14T00:38:55.139Z,96.50
2018-05-14T00:41:21.499Z,96.50
2018-05-14T00:43:48.560Z,97.20
2018-05-14T00:46:15.624Z,96.70
2018-05-14T00:48:41.974Z,96.70
2018-05-14T00:51:08.280Z,96.20
2018-05-14T00:53:34.604Z,96.20
2018-05-14T00:56:01.483Z,96.20
2018-05-14T00:58:27.824Z,97.10
2018-05-14T01:00:54.232Z,97.80
2018-05-14T01:03:21.294Z,97.00
2018-05-14T01:05:47.605Z,97.00
2018-05-14T01:08:14.700Z,97.80
2018-05-14T01:10:41.059Z,97.90
2018-05-14T01:13:07.447Z,98.00
2018-05-14T01:15:33.807Z,97.80
2018-05-14T01:18:00.120Z,98.00
2018-05-14T01:20:27.240Z,98.20
2018-05-14T01:22:53.543Z,98.20
2018-05-14T01:25:20.619Z,97.60
2018-05-14T01:27:46.913Z,97.60
2018-05-14T01:30:13.284Z,97.50
2018-05-14T01:32:39.583Z,97.80
2018-05-14T01:35:05.930Z,97.60
2018-05-14T01:37:32.241Z,97.70
2018-05-14T01:39:58.594Z,97.60
2018-05-14T01:42:24.908Z,97.70
2018-05-14T01:44:51.281Z,98.60
2018-05-14T01:47:18.444Z,98.70
2018-05-14T01:49:44.790Z,98.70
2018-05-14T01:52:11.189Z,99.10
2018-05-14T01:54:37.518Z,99.00
2018-05-14T01:57:04.635Z,98.80
2018-05-14T01:59:30.956Z,98.90
2018-05-14T02:01:57.320Z,98.30
2018-05-14T02:04:24.427Z,97.90
2018-05-14T02:06:50.871Z,97.90
2018-05-14T02:09:17.176Z,98.00
2018-05-14T02:11:45.738Z,98.00
2018-05-14T02:14:12.911Z,98.00
2018-05-14T02:16:39.800Z,97.60
2018-05-14T02:19:06.147Z,97.90
2018-05-14T02:21:32.489Z,98.30
2018-05-14T02:23:58.791Z,98.50
2018-05-14T02:26:25.113Z,98.60
2018-05-14T02:28:51.457Z,98.60
2018-05-14T02:31:18.504Z,98.90
2018-05-14T02:33:44.915Z,98.80
2018-05-14T02:36:11.215Z,99.20
2018-05-14T02:38:37.611Z,99.10
2018-05-14T02:41:03.952Z,99.10
2018-05-14T02:43:30.313Z,98.70
2018-05-14T02:45:56.668Z,98.50
2018-05-14T02:48:23.773Z,97.90
2018-05-14T02:50:50.105Z,97.80
2018-05-14T02:53:17.121Z,97.80
2018-05-14T02:55:43.427Z,97.90
2018-05-14T02:58:09.741Z,97.50
2018-05-14T03:00:36.074Z,97.40
2018-05-14T03:03:02.384Z,97.10
2018-05-14T03:05:28.716Z,97.60
2018-05-14T03:07:55.039Z,97.70
2018-05-14T03:10:21.494Z,97.40
2018-05-14T03:12:47.754Z,97.90
2018-05-14T03:15:14.101Z,97.50
2018-05-14T03:17:40.466Z,97.20
2018-05-14T03:20:06.839Z,97.50
2018-05-14T03:22:33.913Z,97.40
2018-05-14T03:25:00.289Z,97.40
2018-05-14T03:27:26.609Z,97.20
2018-05-14T03:29:53.025Z,96.80
2018-05-14T03:32:19.367Z,96.70
2018-05-14T03:34:45.721Z,96.40
2018-05-14T03:37:12.052Z,96.30
2018-05-14T03:39:38.390Z,96.80
2018-05-14T03:42:05.455Z,96.20
2018-05-14T03:44:31.788Z,96.20
2018-05-14T03:46:58.132Z,96.40
2018-05-14T03:49:24.468Z,95.40
2018-05-14T03:51:50.802Z,95.60
2018-05-14T03:54:17.113Z,96.00
2018-05-14T03:56:43.512Z,96.30
2018-05-14T03:59:28.166Z,96.30
2018-05-14T04:02:26.627Z,95.40
2018-05-14T04:05:16.327Z,95.30
2018-05-14T04:07:43.454Z,96.00
2018-05-14T04:10:09.803Z,96.10
2018-05-14T04:12:36.123Z,96.00
2018-05-14T04:15:02.507Z,96.40
2018-05-14T04:17:28.807Z,96.20
2018-05-14T04:19:55.169Z,96.00
2018-05-14T04:22:21.514Z,96.00
2018-05-14T04:24:48.356Z,96.70
2018-05-14T04:27:14.711Z,97.10
2018-05-14T04:29:41.015Z,97.70
2018-05-14T04:32:14.232Z,98.20
2018-05-14T04:34:40.545Z,98.50
2018-05-14T04:37:06.868Z,97.80
2018-05-14T04:39:33.248Z,97.70
2018-05-14T04:41:59.632Z,97.40
2018-05-14T04:44:26.061Z,97.40
2018-05-14T04:46:52.426Z,97.20
2018-05-14T04:49:19.504Z,97.20
2018-05-14T04:51:45.888Z,97.20
2018-05-14T04:54:12.227Z,96.90
2018-05-14T04:56:39.315Z,96.30
2018-05-14T04:59:05.676Z,96.30
2018-05-14T05:01:32.028Z,95.60
2018-05-14T05:03:58.352Z,95.90
2018-05-14T05:06:24.680Z,96.30
2018-05-14T05:08:51.017Z,96.40
2018-05-14T05:11:18.169Z,96.50
2018-05-14T05:13:44.503Z,96.50
2018-05-14T05:16:10.840Z,96.60
2018-05-14T05:18:37.896Z,95.30
2018-05-14T05:21:04.303Z,95.30
2018-05-14T05:23:30.629Z,95.50
2018-05-14T05:25:56.984Z,95.70
2018-05-14T05:28:24.126Z,95.90
2018-05-14T05:30:50.445Z,95.90
2018-05-14T05:33:17.551Z,96.70
2018-05-14T05:35:43.852Z,96.50
2018-05-14T05:38:11.822Z,96.90
2018-05-14T05:40:38.776Z,97.00
2018-05-14T05:43:05.861Z,96.60
2018-05-14T05:45:32.976Z,96.40
2018-05-14T05:48:00.031Z,95.70
2018-05-14T05:50:27.048Z,95.90
2018-05-14T05:52:54.085Z,96.50
2018-05-14T05:55:21.845Z,96.50
2018-05-14T05:57:49.465Z,96.60
2018-05-14T06:00:15.817Z,96.50
2018-05-14T06:02:42.179Z,96.70
2018-05-14T06:05:08.557Z,96.80
2018-05-14T06:07:34.944Z,96.80
2018-05-14T06:10:02.060Z,97.10
2018-05-14T06:12:28.461Z,97.40
2018-05-14T06:14:54.824Z,96.90
2018-05-14T06:17:21.889Z,97.20
2018-05-14T06:19:48.244Z,97.20
2018-05-14T06:22:14.638Z,96.50
2018-05-14T06:24:40.999Z,96.50
2018-05-14T06:27:07.304Z,96.70
2018-05-14T06:29:33.720Z,97.30
2018-05-14T06:32:00.760Z,97.70
2018-05-14T06:34:27.085Z,97.70
2018-05-14T06:36:54.193Z,97.60
2018-05-14T06:39:20.545Z,97.50
2018-05-14T06:41:46.909Z,97.00
2018-05-14T06:44:14.054Z,97.10
2018-05-14T06:46:40.346Z,97.10
2018-05-14T06:49:06.679Z,97.20
2018-05-14T06:51:33.030Z,96.70
2018-05-14T06:54:00.381Z,96.30
2018-05-14T06:56:26.522Z,96.30
2018-05-14T06:58:53.593Z,95.70
2018-05-14T07:01:19.948Z,95.70
2018-05-14T07:03:46.292Z,94.90
2018-05-14T07:06:12.667Z,95.50
2018-05-14T07:08:39.874Z,94.80
2018-05-14T07:11:06.964Z,95.40
2018-05-14T07:13:33.304Z,95.40
2018-05-14T07:15:59.606Z,95.20
2018-05-14T07:18:26.728Z,96.30
2018-05-14T07:20:53.064Z,96.30
2018-05-14T07:23:19.460Z,96.10
2018-05-14T07:25:45.775Z,96.40
2018-05-14T07:28:12.155Z,96.60
2018-05-14T07:30:38.481Z,96.10
2018-05-14T07:33:04.790Z,95.20
2018-05-14T07:35:31.199Z,94.40
2018-05-14T07:37:57.542Z,94.30
2018-05-14T07:40:24.005Z,94.20
2018-05-14T07:42:51.063Z,94.60
2018-05-14T07:45:17.396Z,94.60
2018-05-14T07:47:44.461Z,94.70
2018-05-14T07:50:11.596Z,95.30
2018-05-14T07:52:38.655Z,94.60
2018-05-14T07:55:05.748Z,94.70
2018-05-14T07:57:32.063Z,94.70
2018-05-14T07:59:58.404Z,95.20
2018-05-14T08:02:24.792Z,95.00
2018-05-14T08:04:51.214Z,95.10
2018-05-14T08:07:18.276Z,94.80
2018-05-14T08:09:44.638Z,94.80
2018-05-14T08:12:11.003Z,95.00
2018-05-14T08:14:37.373Z,95.00
2018-05-14T08:17:03.824Z,95.10
2018-05-14T08:19:30.153Z,94.20
2018-05-14T08:21:56.519Z,94.70
2018-05-14T08:24:22.888Z,94.70
2018-05-14T08:26:49.258Z,94.40
2018-05-14T08:29:15.568Z,94.60
2018-05-14T08:31:41.891Z,94.60
2018-05-14T08:34:08.222Z,94.50
2018-05-14T08:36:34.593Z,94.10
2018-05-14T08:39:00.940Z,94.10
2018-05-14T08:41:28.023Z,95.30
2018-05-14T08:43:54.390Z,95.40
2018-05-14T08:46:20.749Z,95.60
2018-05-14T08:48:47.954Z,95.80
2018-05-14T08:51:14.237Z,95.70
2018-05-14T08:53:41.317Z,94.80
2018-05-14T08:56:07.743Z,94.70
2018-05-14T08:58:34.130Z,95.70
2018-05-14T09:01:00.504Z,95.60
2018-05-14T09:03:26.863Z,95.50
2018-05-14T09:05:53.181Z,95.30
2018-05-14T09:08:19.512Z,94.70
2018-05-14T09:10:45.911Z,95.00
2018-05-14T09:13:12.328Z,94.80
2018-05-14T09:15:38.667Z,94.50
2018-05-14T09:18:05.012Z,94.80
2018-05-14T09:20:31.368Z,94.60
2018-05-14T09:22:57.699Z,94.90
2018-05-14T09:25:24.131Z,94.60
2018-05-14T09:27:50.445Z,95.60
2018-05-14T09:30:16.810Z,95.70
2018-05-14T09:32:43.147Z,95.90
2018-05-14T09:35:09.498Z,96.50
2018-05-14T09:37:36.381Z,96.80
2018-05-14T09:40:02.739Z,96.50
2018-05-14T09:42:29.160Z,96.90
2018-05-14T09:44:55.834Z,96.70
2018-05-14T09:47:22.253Z,96.80
2018-05-14T09:49:48.666Z,96.40
2018-05-14T09:52:15.937Z,96.60
2018-05-14T09:54:43.056Z,96.10
2018-05-14T09:57:09.382Z,96.10
2018-05-14T09:59:35.725Z,96.10
2018-05-14T10:02:02.071Z,96.30
2018-05-14T10:04:28.420Z,96.50
2018-05-14T10:06:54.715Z,96.60
2018-05-14T10:09:21.054Z,96.10
2018-05-14T10:11:47.403Z,96.50
2018-05-14T10:14:14.524Z,96.90
2018-05-14T10:16:40.927Z,96.90
2018-05-14T10:19:07.275Z,96.70
2018-05-14T10:21:33.579Z,96.20
2018-05-14T10:23:59.929Z,95.70
2018-05-14T10:26:26.287Z,96.10
2018-05-14T10:28:53.391Z,97.10
2018-05-14T10:31:19.784Z,97.00
2018-05-14T10:33:46.880Z,96.80
2018-05-14T10:36:13.204Z,96.80
2018-05-14T10:38:39.609Z,96.40
2018-05-14T10:41:05.965Z,96.20
2018-05-14T10:43:32.293Z,95.90
2018-05-14T10:45:58.700Z,95.20
2018-05-14T10:48:25.071Z,95.30
2018-05-14T10:50:51.448Z,95.10
2018-05-14T10:53:17.813Z,95.40
2018-05-14T10:55:44.160Z,95.40
2018-05-14T10:58:10.522Z,95.70
2018-05-14T11:00:37.736Z,95.10
2018-05-14T11:03:04.078Z,95.10
2018-05-14T11:05:30.415Z,95.20
2018-05-14T11:07:56.853Z,95.00
2018-05-14T11:10:23.950Z,94.40
2018-05-14T11:12:50.983Z,94.40
2018-05-14T11:15:17.375Z,94.20
2018-05-14T11:17:45.113Z,94.50
2018-05-14T11:20:11.435Z,94.40
2018-05-14T11:22:37.788Z,94.40
2018-05-14T11:25:04.907Z,94.00
2018-05-14T11:27:31.356Z,94.00
2018-05-14T11:29:57.760Z,93.40
2018-05-14T11:32:24.209Z,93.20
2018-05-14T11:34:50.580Z,93.50
2018-05-14T11:37:16.944Z,93.30
2018-05-14T11:39:43.259Z,92.80
2018-05-14T11:42:09.611Z,92.90
2018-05-14T11:44:35.997Z,93.40
2018-05-14T11:47:02.412Z,93.70
2018-05-14T11:49:28.733Z,93.90
2018-05-14T11:51:55.141Z,94.00
2018-05-14T11:54:21.485Z,94.50
2018-05-14T11:56:47.891Z,94.60
2018-05-14T11:59:14.162Z,93.70
2018-05-14T12:01:40.518Z,93.80
2018-05-14T12:04:06.877Z,93.50
2018-05-14T12:06:33.222Z,93.40
2018-05-14T12:08:59.656Z,93.10
2018-05-14T12:11:26.027Z,93.60
2018-05-14T12:13:53.137Z,93.10
2018-05-14T12:16:19.661Z,93.10
2018-05-14T12:18:45.975Z,92.70
2018-05-14T12:21:12.332Z,93.30
2018-05-14T12:23:38.645Z,94.00
2018-05-14T12:26:04.995Z,93.90
2018-05-14T12:28:31.343Z,93.50
2018-05-14T12:30:57.721Z,93.20
2018-05-14T12:33:24.061Z,93.00
2018-05-14T12:35:50.451Z,93.30
2018-05-14T12:38:16.795Z,93.60
2018-05-14T12:40:43.211Z,93.90
2018-05-14T12:43:09.609Z,94.30
2018-05-14T12:45:35.996Z,94.10
2018-05-14T12:48:02.349Z,94.10
2018-05-14T12:50:28.710Z,94.00
2018-05-14T12:52:55.077Z,93.60
2018-05-14T12:55:21.507Z,93.50
2018-05-14T12:57:47.948Z,93.90
2018-05-14T13:00:14.309Z,94.10
2018-05-14T13:02:40.653Z,94.00
2018-05-14T13:05:07.038Z,93.90
2018-05-14T13:07:33.423Z,93.30
2018-05-14T13:09:59.848Z,93.30
2018-05-14T13:12:26.227Z,93.20
2018-05-14T13:14:52.630Z,92.90
2018-05-14T13:17:19.067Z,93.50
2018-05-14T13:19:45.501Z,93.30
2018-05-14T13:22:11.916Z,92.90
2018-05-14T13:24:38.320Z,93.30
2018-05-14T13:29:59.057Z,94.10
2018-05-14T13:32:25.410Z,94.10
2018-05-14T13:34:52.513Z,93.60
2018-05-14T13:37:18.879Z,93.60
2018-05-14T13:39:45.935Z,93.90
2018-05-14T13:42:12.368Z,93.80
2018-05-14T13:44:38.835Z,94.10
2018-05-14T13:47:05.098Z,94.10
2018-05-14T13:49:31.439Z,93.90
2018-05-14T13:51:58.719Z,93.00
2018-05-14T13:54:25.159Z,92.90
2018-05-14T13:56:51.599Z,92.90
2018-05-14T13:59:17.880Z,93.00
2018-05-14T14:01:45.086Z,92.90
2018-05-14T14:04:11.494Z,92.90
2018-05-14T14:06:37.820Z,93.70
2018-05-14T14:09:04.982Z,94.20
2018-05-14T14:11:31.428Z,94.20
2018-05-14T14:13:57.773Z,94.90
2018-05-14T14:16:24.159Z,94.80
2018-05-14T14:18:51.270Z,95.20
2018-05-14T14:21:17.604Z,94.80
2018-05-14T14:23:44.021Z,95.30
2018-05-14T14:26:10.557Z,95.10
2018-05-14T14:28:37.718Z,95.40
2018-05-14T14:31:04.149Z,95.30
2018-05-14T14:33:30.557Z,95.50
2018-05-14T14:35:57.019Z,94.70
2018-05-14T14:38:24.039Z,94.50
2018-05-14T14:40:50.407Z,94.50
2018-05-14T14:43:16.786Z,94.90
2018-05-14T14:45:43.216Z,94.90
2018-05-14T14:48:09.663Z,94.90
2018-05-14T14:50:36.052Z,95.40
2018-05-14T14:53:02.469Z,95.50
2018-05-14T14:55:28.821Z,95.90
2018-05-14T14:57:55.987Z,94.90
2018-05-14T15:00:22.303Z,94.90
2018-05-14T15:02:48.718Z,95.00
2018-05-14T15:05:15.141Z,95.00
2018-05-14T15:07:41.468Z,94.20
2018-05-14T15:10:08.586Z,94.10
2018-05-14T15:12:35.018Z,94.10
2018-05-14T15:15:01.437Z,94.50
2018-05-14T15:17:27.785Z,95.10
2018-05-14T15:19:54.181Z,94.90
2018-05-14T15:22:20.528Z,94.40
2018-05-14T15:24:46.981Z,94.00
2018-05-14T15:27:14.075Z,94.00
2018-05-14T15:29:40.544Z,94.00
2018-05-14T15:32:07.565Z,94.50
2018-05-14T15:34:33.945Z,94.60
2018-05-14T15:37:00.336Z,94.50
2018-05-14T15:39:26.666Z,94.60
2018-05-14T15:41:53.037Z,95.00
2018-05-14T15:44:20.111Z,95.70
2018-05-14T15:46:47.338Z,95.70
2018-05-14T15:49:13.722Z,95.90
2018-05-14T15:51:40.092Z,96.60
2018-05-14T15:54:07.200Z,96.90
2018-05-14T15:56:33.609Z,96.90
2018-05-14T15:58:59.920Z,96.90
2018-05-14T16:01:26.324Z,96.90
2018-05-14T16:03:52.660Z,96.90
2018-05-14T16:06:19.771Z,96.90
2018-05-14T16:08:46.128Z,96.90
2018-05-14T16:11:12.506Z,97.30
2018-05-14T16:13:38.888Z,97.40
2018-05-14T16:16:05.253Z,97.40
2018-05-14T16:18:31.616Z,97.90
2018-05-14T16:20:57.952Z,98.10
2018-05-14T16:23:24.356Z,98.40
2018-05-14T16:25:50.683Z,99.20
2018-05-14T16:28:17.147Z,99.90
2018-05-14T16:30:43.630Z,99.90
2018-05-14T16:33:10.801Z,99.90
2018-05-14T16:35:37.116Z,99.90
2018-05-14T16:38:03.535Z,99.90
2018-05-14T16:40:29.899Z,99.90
2018-05-14T16:42:58.131Z,99.90
2018-05-14T16:45:24.512Z,99.90
2018-05-14T16:47:50.888Z,99.90
2018-05-14T16:50:17.361Z,99.90
2018-05-14T16:52:43.700Z,99.90
2018-05-14T16:55:10.145Z,99.90
2018-05-14T16:57:36.595Z,99.90
2018-05-14T17:00:03.752Z,99.90
2018-05-14T17:02:30.852Z,99.90
2018-05-14T17:04:57.315Z,99.90
2018-05-14T17:07:23.695Z,99.90
2018-05-14T17:09:50.067Z,99.90
2018-05-14T17:12:16.530Z,99.90
2018-05-14T17:14:43.765Z,99.90
2018-05-14T17:17:10.938Z,99.90
2018-05-14T17:19:37.400Z,99.90
2018-05-14T17:22:03.828Z,99.90
2018-05-14T17:24:30.217Z,99.90
2018-05-14T17:26:56.709Z,99.90
2018-05-14T17:29:23.047Z,99.90
2018-05-14T17:31:49.466Z,99.90
2018-05-14T17:34:15.850Z,99.90
2018-05-14T17:36:42.296Z,99.90
2018-05-14T17:39:08.699Z,99.90
2018-05-14T17:41:35.077Z,99.90
2018-05-14T17:44:01.461Z,99.90
2018-05-14T17:46:27.885Z,99.90
2018-05-14T17:48:54.284Z,99.90
2018-05-14T17:51:20.669Z,99.90
2018-05-14T17:53:47.773Z,99.90
2018-05-14T17:58:45.807Z,99.90
2018-05-14T18:01:12.916Z,99.90
2018-05-14T18:03:39.352Z,99.90
2018-05-14T18:06:05.860Z,99.90
2018-05-14T18:08:32.225Z,99.90
2018-05-14T18:10:58.842Z,99.90
2018-05-14T18:13:25.802Z,99.00
2018-05-14T18:15:52.244Z,99.00
2018-05-14T18:18:19.349Z,99.90
2018-05-14T18:20:45.746Z,99.90
2018-05-14T18:23:18.839Z,99.90
2018-05-14T18:25:51.197Z,99.90
2018-05-14T18:28:18.367Z,99.40
2018-05-14T18:30:45.702Z,99.40
2018-05-14T18:33:12.934Z,99.00
2018-05-14T18:35:43.454Z,99.00
2018-05-14T18:38:10.529Z,98.70
2018-05-14T18:40:37.652Z,98.40
2018-05-14T18:43:04.169Z,98.40
2018-05-14T18:45:30.571Z,98.70
2018-05-14T18:47:56.964Z,99.10
2018-05-14T18:50:24.195Z,98.50
2018-05-14T18:52:50.666Z,98.50
2018-05-14T18:55:17.063Z,99.10
2018-05-14T18:57:44.205Z,99.10
2018-05-14T19:00:10.871Z,99.10
2018-05-14T19:02:37.260Z,99.50
2018-05-14T19:05:04.709Z,99.90
2018-05-14T19:07:31.162Z,99.90
2018-05-14T19:09:57.668Z,99.90
2018-05-14T19:12:24.916Z,99.90
2018-05-14T19:17:59.293Z,99.90
2018-05-14T19:20:26.487Z,99.90
2018-05-14T19:22:59.069Z,99.90
2018-05-14T19:25:25.473Z,99.90
2018-05-14T19:27:57.961Z,99.90
2018-05-14T19:30:32.205Z,99.90
2018-05-14T19:32:58.701Z,99.90
2018-05-14T19:35:31.175Z,99.90
2018-05-14T19:37:57.669Z,99.90
2018-05-14T19:40:30.843Z,99.90
2018-05-14T19:42:57.244Z,99.90
2018-05-14T19:45:23.665Z,99.90
2018-05-14T19:47:50.053Z,99.90
2018-05-14T19:50:16.554Z,99.90
2018-05-14T19:52:43.044Z,99.90
2018-05-14T19:55:09.435Z,99.90
2018-05-14T19:57:35.864Z,99.90
2018-05-14T20:00:02.416Z,99.90
2018-05-14T20:02:29.623Z,99.90
2018-05-14T20:04:56.089Z,99.90
2018-05-14T20:07:22.569Z,99.90
2018-05-14T20:09:49.038Z,99.90
2018-05-14T20:12:15.490Z,99.90
2018-05-14T20:14:41.962Z,99.90
2018-05-14T20:17:08.403Z,99.30
2018-05-14T20:19:34.858Z,99.30
2018-05-14T20:22:01.256Z,98.70
2018-05-14T20:24:27.732Z,98.70
2018-05-14T20:26:54.147Z,98.70
2018-05-14T20:29:20.526Z,99.10
2018-05-14T20:31:46.928Z,99.20
2018-05-14T20:34:14.116Z,98.90
2018-05-14T20:36:41.345Z,99.00
2018-05-14T20:39:07.761Z,99.00
2018-05-14T20:41:34.945Z,98.80
2018-05-14T20:44:02.170Z,99.50
2018-05-14T20:46:28.605Z,99.50
2018-05-14T20:48:55.787Z,98.20
2018-05-14T20:51:22.246Z,98.20
2018-05-14T20:53:48.615Z,97.90
2018-05-14T20:56:15.113Z,98.50
2018-05-14T20:58:41.547Z,98.50
2018-05-14T21:01:08.036Z,99.20
2018-05-14T21:03:35.192Z,99.90
2018-05-14T21:06:02.370Z,99.90
2018-05-14T21:08:28.745Z,99.90
2018-05-14T21:10:55.292Z,99.90
2018-05-14T21:13:22.741Z,98.80
2018-05-14T21:15:49.489Z,98.80
2018-05-14T21:18:16.510Z,99.20
2018-05-14T21:20:43.057Z,99.70
2018-05-14T21:23:09.414Z,99.70
2018-05-14T21:25:35.947Z,99.90
2018-05-14T21:28:02.461Z,99.90
2018-05-14T21:30:29.029Z,99.90
2018-05-14T21:32:55.544Z,99.90
2018-05-14T21:35:23.099Z,99.90
2018-05-14T21:37:50.533Z,99.90
2018-05-14T21:40:17.161Z,99.90
2018-05-14T21:42:45.558Z,99.90
2018-05-14T21:45:11.999Z,99.90
2018-05-14T21:47:39.138Z,99.90
2018-05-14T21:50:05.632Z,99.90
2018-05-14T21:52:32.050Z,99.90
2018-05-14T21:54:58.946Z,99.90
2018-05-14T21:57:26.036Z,99.90
2018-05-14T21:59:52.424Z,99.90
2018-05-14T22:02:19.014Z,99.90
2018-05-14T22:04:45.517Z,99.90
2018-05-14T22:07:11.993Z,99.90
2018-05-14T22:09:38.417Z,99.90
2018-05-14T22:12:04.775Z,99.90
2018-05-14T22:14:31.196Z,99.90
2018-05-14T22:16:59.004Z,99.90
2018-05-14T22:19:26.168Z,99.90
2018-05-14T22:21:52.600Z,99.90
2018-05-14T22:24:18.990Z,99.90
2018-05-14T22:26:45.513Z,99.90
2018-05-14T22:29:11.808Z,99.90
2018-05-14T22:31:38.221Z,99.90
2018-05-14T22:34:04.551Z,99.90
2018-05-14T22:36:30.907Z,99.90
2018-05-14T22:38:57.274Z,99.90
2018-05-14T22:41:24.483Z,99.90
2018-05-14T22:43:50.848Z,99.90
2018-05-14T22:46:17.890Z,99.90
2018-05-14T22:48:45.924Z,99.90
2018-05-14T22:51:12.328Z,99.90
2018-05-14T22:53:38.816Z,99.90
2018-05-14T22:56:05.164Z,99.90
2018-05-14T22:58:31.501Z,99.90
2018-05-14T23:00:57.840Z,99.70
2018-05-14T23:03:24.172Z,99.90
2018-05-14T23:05:51.280Z,99.90
2018-05-14T23:08:18.453Z,99.60
2018-05-14T23:10:45.556Z,99.30
2018-05-14T23:13:11.905Z,99.20
2018-05-14T23:15:38.349Z,99.20
2018-05-14T23:18:04.692Z,99.30
2018-05-14T23:20:31.088Z,99.50
2018-05-14T23:22:57.400Z,99.60
2018-05-14T23:25:23.782Z,99.40
2018-05-14T23:27:51.063Z,98.70
2018-05-14T23:30:17.448Z,98.70
2018-05-14T23:32:43.761Z,98.80
2018-05-14T23:35:10.179Z,99.20
2018-05-14T23:37:36.660Z,99.40
2018-05-14T23:40:03.754Z,99.10
2018-05-14T23:42:30.099Z,99.10
2018-05-14T23:44:56.421Z,99.60
2018-05-14T23:47:22.885Z,99.60
2018-05-14T23:49:49.195Z,98.80
2018-05-14T23:52:16.544Z,99.00
2018-05-14T23:54:42.914Z,98.50
2018-05-14T23:57:09.272Z,98.50
2018-05-14T23:59:35.612Z,98.40
